sensor_id;sensor_type;location;lat;lon;timestamp;pressure;altitude;pressure_sealevel;temperature;humidity
70437;BME280;57877;39.750;-104.894;2023-03-18T00:01:15;83849.18;;;7.29;9.70
70437;BME280;57877;39.750;-104.894;2023-03-18T00:03:41;83845.59;;;6.09;10.35
70437;BME280;57877;39.750;-104.894;2023-03-18T00:06:10;83846.88;;;5.89;10.12
70437;BME280;57877;39.750;-104.894;2023-03-18T00:08:34;83848.80;;;6.26;10.16
70437;BME280;57877;39.750;-104.894;2023-03-18T00:10:59;83849.26;;;4.87;10.47
70437;BME280;57877;39.750;-104.894;2023-03-18T00:13:26;83851.55;;;4.82;10.41
70437;BME280;57877;39.750;-104.894;2023-03-18T00:15:52;83851.72;;;5.46;10.14
70437;BME280;57877;39.750;-104.894;2023-03-18T00:18:17;83856.13;;;5.53;10.13
70437;BME280;57877;39.750;-104.894;2023-03-18T00:20:43;83862.54;;;4.89;10.30
70437;BME280;57877;39.750;-104.894;2023-03-18T00:23:09;83864.29;;;4.88;10.75
70437;BME280;57877;39.750;-104.894;2023-03-18T00:25:36;83865.67;;;4.08;11.42
70437;BME280;57877;39.750;-104.894;2023-03-18T00:28:01;83875.07;;;3.90;11.97
70437;BME280;57877;39.750;-104.894;2023-03-18T00:30:27;83878.30;;;3.84;12.18
70437;BME280;57877;39.750;-104.894;2023-03-18T00:32:55;83884.04;;;3.41;12.51
70437;BME280;57877;39.750;-104.894;2023-03-18T00:35:19;83896.02;;;3.84;12.63
70437;BME280;57877;39.750;-104.894;2023-03-18T00:37:45;83897.84;;;2.72;13.01
70437;BME280;57877;39.750;-104.894;2023-03-18T00:40:13;83900.50;;;2.11;13.24
70437;BME280;57877;39.750;-104.894;2023-03-18T00:42:39;83902.14;;;2.24;12.96
70437;BME280;57877;39.750;-104.894;2023-03-18T00:45:03;83903.32;;;1.98;12.91
70437;BME280;57877;39.750;-104.894;2023-03-18T00:47:28;83907.42;;;1.90;13.24
70437;BME280;57877;39.750;-104.894;2023-03-18T00:49:54;83917.76;;;2.34;12.84
70437;BME280;57877;39.750;-104.894;2023-03-18T00:52:19;83921.76;;;0.88;13.39
70437;BME280;57877;39.750;-104.894;2023-03-18T00:54:44;83927.18;;;0.29;13.39
70437;BME280;57877;39.750;-104.894;2023-03-18T00:57:09;83931.77;;;1.03;12.81
70437;BME280;57877;39.750;-104.894;2023-03-18T00:59:35;83938.15;;;0.50;13.17
70437;BME280;57877;39.750;-104.894;2023-03-18T01:02:01;83941.65;;;1.25;13.28
70437;BME280;57877;39.750;-104.894;2023-03-18T01:04:27;83950.88;;;0.64;13.03
70437;BME280;57877;39.750;-104.894;2023-03-18T01:06:53;83955.00;;;0.73;13.04
70437;BME280;57877;39.750;-104.894;2023-03-18T01:09:19;83964.09;;;1.20;13.02
70437;BME280;57877;39.750;-104.894;2023-03-18T01:11:44;83964.35;;;0.79;13.16
70437;BME280;57877;39.750;-104.894;2023-03-18T01:14:10;83968.92;;;0.76;13.57
70437;BME280;57877;39.750;-104.894;2023-03-18T01:16:35;83975.07;;;1.08;13.15
70437;BME280;57877;39.750;-104.894;2023-03-18T01:19:01;83980.92;;;0.52;13.80
70437;BME280;57877;39.750;-104.894;2023-03-18T01:21:27;83982.74;;;-0.30;14.51
70437;BME280;57877;39.750;-104.894;2023-03-18T01:23:53;83982.77;;;0.17;14.18
70437;BME280;57877;39.750;-104.894;2023-03-18T01:26:19;83994.53;;;-1.07;15.04
70437;BME280;57877;39.750;-104.894;2023-03-18T01:28:44;83999.60;;;-0.13;14.46
70437;BME280;57877;39.750;-104.894;2023-03-18T01:31:09;84000.67;;;-0.11;13.74
70437;BME280;57877;39.750;-104.894;2023-03-18T01:33:34;84006.13;;;-0.29;13.96
70437;BME280;57877;39.750;-104.894;2023-03-18T01:36:00;84008.39;;;-0.35;14.00
70437;BME280;57877;39.750;-104.894;2023-03-18T01:38:27;84015.63;;;-0.64;14.40
70437;BME280;57877;39.750;-104.894;2023-03-18T01:40:51;84015.20;;;-0.30;14.56
70437;BME280;57877;39.750;-104.894;2023-03-18T01:43:20;84021.23;;;-0.32;14.80
70437;BME280;57877;39.750;-104.894;2023-03-18T01:45:48;84027.42;;;-0.26;14.48
70437;BME280;57877;39.750;-104.894;2023-03-18T01:48:14;84030.80;;;-0.07;14.67
70437;BME280;57877;39.750;-104.894;2023-03-18T01:50:36;84037.40;;;-0.37;14.96
70437;BME280;57877;39.750;-104.894;2023-03-18T01:53:03;84043.17;;;-0.34;15.22
70437;BME280;57877;39.750;-104.894;2023-03-18T01:55:30;84046.84;;;-0.54;15.34
70437;BME280;57877;39.750;-104.894;2023-03-18T01:57:54;84050.75;;;-0.48;15.72
70437;BME280;57877;39.750;-104.894;2023-03-18T02:00:20;84057.36;;;-0.53;15.82
70437;BME280;57877;39.750;-104.894;2023-03-18T02:02:47;84059.89;;;-0.46;15.79
70437;BME280;57877;39.750;-104.894;2023-03-18T02:05:14;84063.53;;;-0.76;16.06
70437;BME280;57877;39.750;-104.894;2023-03-18T02:07:40;84070.62;;;-0.40;16.39
70437;BME280;57877;39.750;-104.894;2023-03-18T02:10:07;84072.21;;;-0.35;16.86
70437;BME280;57877;39.750;-104.894;2023-03-18T02:12:31;84077.87;;;-0.32;16.82
70437;BME280;57877;39.750;-104.894;2023-03-18T02:14:55;84083.49;;;-0.44;17.13
70437;BME280;57877;39.750;-104.894;2023-03-18T02:17:23;84092.78;;;-0.71;17.68
70437;BME280;57877;39.750;-104.894;2023-03-18T02:19:53;84093.29;;;-0.41;17.72
70437;BME280;57877;39.750;-104.894;2023-03-18T02:22:21;84100.19;;;-0.36;17.89
70437;BME280;57877;39.750;-104.894;2023-03-18T02:24:43;84104.24;;;-0.63;18.21
70437;BME280;57877;39.750;-104.894;2023-03-18T02:29:32;84114.32;;;0.00;18.04
70437;BME280;57877;39.750;-104.894;2023-03-18T02:31:54;84122.13;;;0.10;17.98
70437;BME280;57877;39.750;-104.894;2023-03-18T02:34:19;84134.09;;;-0.37;18.42
70437;BME280;57877;39.750;-104.894;2023-03-18T02:36:44;84145.10;;;-0.62;18.60
70437;BME280;57877;39.750;-104.894;2023-03-18T02:39:13;84151.86;;;-0.06;18.39
70437;BME280;57877;39.750;-104.894;2023-03-18T02:41:35;84163.57;;;-0.41;19.12
70437;BME280;57877;39.750;-104.894;2023-03-18T02:44:02;84166.99;;;0.55;18.42
70437;BME280;57877;39.750;-104.894;2023-03-18T02:46:31;84169.55;;;-0.03;19.43
70437;BME280;57877;39.750;-104.894;2023-03-18T02:48:51;84167.22;;;-0.07;20.09
70437;BME280;57877;39.750;-104.894;2023-03-18T02:51:16;84172.67;;;0.53;19.68
70437;BME280;57877;39.750;-104.894;2023-03-18T02:53:43;84171.57;;;0.18;20.48
70437;BME280;57877;39.750;-104.894;2023-03-18T02:56:08;84176.99;;;-0.27;21.35
70437;BME280;57877;39.750;-104.894;2023-03-18T02:58:36;84187.36;;;-0.62;22.30
70437;BME280;57877;39.750;-104.894;2023-03-18T03:00:59;84192.48;;;-0.91;22.95
70437;BME280;57877;39.750;-104.894;2023-03-18T03:03:24;84199.06;;;-1.10;23.17
70437;BME280;57877;39.750;-104.894;2023-03-18T03:05:49;84202.10;;;-1.10;23.73
70437;BME280;57877;39.750;-104.894;2023-03-18T03:08:14;84207.81;;;-1.27;23.83
70437;BME280;57877;39.750;-104.894;2023-03-18T03:10:41;84212.49;;;-1.01;23.47
70437;BME280;57877;39.750;-104.894;2023-03-18T03:13:06;84224.01;;;-0.87;23.16
70437;BME280;57877;39.750;-104.894;2023-03-18T03:15:31;84230.71;;;-0.91;23.44
70437;BME280;57877;39.750;-104.894;2023-03-18T03:17:57;84228.30;;;-1.11;23.73
70437;BME280;57877;39.750;-104.894;2023-03-18T03:20:23;84238.04;;;-0.62;23.29
70437;BME280;57877;39.750;-104.894;2023-03-18T03:22:49;84240.00;;;-1.00;23.51
70437;BME280;57877;39.750;-104.894;2023-03-18T03:25:14;84239.10;;;-0.01;22.98
70437;BME280;57877;39.750;-104.894;2023-03-18T03:27:39;84242.84;;;-0.55;22.98
70437;BME280;57877;39.750;-104.894;2023-03-18T03:30:09;84242.85;;;-0.60;23.12
70437;BME280;57877;39.750;-104.894;2023-03-18T03:32:30;84241.84;;;-0.56;22.99
70437;BME280;57877;39.750;-104.894;2023-03-18T03:34:55;84243.15;;;-0.42;23.26
70437;BME280;57877;39.750;-104.894;2023-03-18T03:37:20;84244.35;;;-0.74;23.29
70437;BME280;57877;39.750;-104.894;2023-03-18T03:39:45;84244.99;;;-0.13;22.73
70437;BME280;57877;39.750;-104.894;2023-03-18T03:42:10;84246.97;;;-0.53;23.17
70437;BME280;57877;39.750;-104.894;2023-03-18T03:44:36;84247.54;;;-0.27;23.05
70437;BME280;57877;39.750;-104.894;2023-03-18T03:47:00;84252.18;;;-0.44;22.75
70437;BME280;57877;39.750;-104.894;2023-03-18T03:49:25;84255.35;;;-0.15;22.69
70437;BME280;57877;39.750;-104.894;2023-03-18T03:51:50;84258.28;;;-0.36;22.80
70437;BME280;57877;39.750;-104.894;2023-03-18T03:54:16;84261.27;;;-0.39;22.64
70437;BME280;57877;39.750;-104.894;2023-03-18T03:56:42;84263.82;;;-0.47;22.96
70437;BME280;57877;39.750;-104.894;2023-03-18T03:59:08;84264.00;;;-0.25;22.84
70437;BME280;57877;39.750;-104.894;2023-03-18T04:01:33;84265.08;;;-0.58;23.25
70437;BME280;57877;39.750;-104.894;2023-03-18T04:03:58;84264.99;;;-0.66;23.46
70437;BME280;57877;39.750;-104.894;2023-03-18T04:06:23;84269.53;;;-0.53;23.27
70437;BME280;57877;39.750;-104.894;2023-03-18T04:08:49;84270.90;;;-0.50;22.90
70437;BME280;57877;39.750;-104.894;2023-03-18T04:11:15;84271.92;;;-0.33;23.08
70437;BME280;57877;39.750;-104.894;2023-03-18T04:13:41;84272.48;;;-0.70;23.02
70437;BME280;57877;39.750;-104.894;2023-03-18T04:16:06;84274.44;;;-0.17;22.79
70437;BME280;57877;39.750;-104.894;2023-03-18T04:18:32;84279.58;;;0.22;22.48
70437;BME280;57877;39.750;-104.894;2023-03-18T04:20:57;84281.32;;;0.02;22.28
70437;BME280;57877;39.750;-104.894;2023-03-18T04:23:23;84276.76;;;0.43;22.09
70437;BME280;57877;39.750;-104.894;2023-03-18T04:25:49;84278.88;;;0.18;22.13
70437;BME280;57877;39.750;-104.894;2023-03-18T04:28:15;84279.69;;;-0.02;22.38
70437;BME280;57877;39.750;-104.894;2023-03-18T04:30:41;84277.95;;;0.32;22.26
70437;BME280;57877;39.750;-104.894;2023-03-18T04:33:06;84282.19;;;0.38;22.34
70437;BME280;57877;39.750;-104.894;2023-03-18T04:35:32;84282.59;;;0.35;22.44
70437;BME280;57877;39.750;-104.894;2023-03-18T04:37:57;84281.11;;;-0.64;23.05
70437;BME280;57877;39.750;-104.894;2023-03-18T04:40:22;84279.92;;;-0.44;22.80
70437;BME280;57877;39.750;-104.894;2023-03-18T04:42:47;84277.24;;;-1.48;23.90
70437;BME280;57877;39.750;-104.894;2023-03-18T04:45:14;84281.94;;;-0.49;23.28
70437;BME280;57877;39.750;-104.894;2023-03-18T04:47:39;84280.05;;;-1.08;23.56
70437;BME280;57877;39.750;-104.894;2023-03-18T04:50:04;84282.83;;;-1.45;24.32
70437;BME280;57877;39.750;-104.894;2023-03-18T04:52:29;84286.26;;;-1.04;23.82
70437;BME280;57877;39.750;-104.894;2023-03-18T04:54:54;84287.73;;;-0.81;23.82
70437;BME280;57877;39.750;-104.894;2023-03-18T04:57:20;84288.39;;;-0.85;23.83
70437;BME280;57877;39.750;-104.894;2023-03-18T04:59:46;84293.03;;;-1.14;23.98
70437;BME280;57877;39.750;-104.894;2023-03-18T05:02:12;84293.11;;;-1.44;24.17
70437;BME280;57877;39.750;-104.894;2023-03-18T05:04:38;84293.82;;;-1.10;24.17
70437;BME280;57877;39.750;-104.894;2023-03-18T05:07:04;84294.21;;;-1.08;24.00
70437;BME280;57877;39.750;-104.894;2023-03-18T05:09:30;84298.33;;;-0.73;23.62
70437;BME280;57877;39.750;-104.894;2023-03-18T05:11:56;84298.50;;;-0.78;23.46
70437;BME280;57877;39.750;-104.894;2023-03-18T05:14:21;84298.39;;;-1.19;23.50
70437;BME280;57877;39.750;-104.894;2023-03-18T05:16:51;84300.09;;;-0.96;23.48
70437;BME280;57877;39.750;-104.894;2023-03-18T05:19:12;84297.59;;;-0.71;23.33
70437;BME280;57877;39.750;-104.894;2023-03-18T05:21:38;84298.07;;;-0.71;23.28
70437;BME280;57877;39.750;-104.894;2023-03-18T05:24:03;84300.57;;;-0.72;23.20
70437;BME280;57877;39.750;-104.894;2023-03-18T05:26:28;84302.53;;;-0.67;23.35
70437;BME280;57877;39.750;-104.894;2023-03-18T05:28:53;84301.02;;;-0.48;23.23
70437;BME280;57877;39.750;-104.894;2023-03-18T05:31:19;84299.72;;;-0.83;23.18
70437;BME280;57877;39.750;-104.894;2023-03-18T05:33:43;84302.82;;;-0.74;23.18
70437;BME280;57877;39.750;-104.894;2023-03-18T05:36:09;84301.63;;;-0.88;23.35
70437;BME280;57877;39.750;-104.894;2023-03-18T05:38:36;84302.01;;;-0.74;23.31
70437;BME280;57877;39.750;-104.894;2023-03-18T05:41:05;84299.67;;;-0.75;23.26
70437;BME280;57877;39.750;-104.894;2023-03-18T05:43:27;84296.88;;;-0.80;23.54
70437;BME280;57877;39.750;-104.894;2023-03-18T05:45:51;84300.80;;;-1.32;23.79
70437;BME280;57877;39.750;-104.894;2023-03-18T05:48:16;84300.77;;;-0.77;23.59
70437;BME280;57877;39.750;-104.894;2023-03-18T05:50:42;84301.11;;;-1.30;23.58
70437;BME280;57877;39.750;-104.894;2023-03-18T05:53:08;84301.38;;;-0.88;23.64
70437;BME280;57877;39.750;-104.894;2023-03-18T05:55:32;84303.08;;;-1.20;23.72
70437;BME280;57877;39.750;-104.894;2023-03-18T05:57:57;84305.94;;;-1.34;23.50
70437;BME280;57877;39.750;-104.894;2023-03-18T06:00:22;84304.15;;;-1.55;23.67
70437;BME280;57877;39.750;-104.894;2023-03-18T06:02:47;84305.90;;;-1.54;23.33
70437;BME280;57877;39.750;-104.894;2023-03-18T06:05:12;84305.63;;;-1.41;23.44
70437;BME280;57877;39.750;-104.894;2023-03-18T06:07:37;84309.17;;;-0.75;23.34
70437;BME280;57877;39.750;-104.894;2023-03-18T06:10:02;84305.84;;;-1.18;23.51
70437;BME280;57877;39.750;-104.894;2023-03-18T06:12:27;84306.80;;;-0.77;23.47
70437;BME280;57877;39.750;-104.894;2023-03-18T06:14:52;84304.60;;;-1.12;23.60
70437;BME280;57877;39.750;-104.894;2023-03-18T06:17:18;84305.17;;;-0.76;23.61
70437;BME280;57877;39.750;-104.894;2023-03-18T06:19:43;84304.50;;;-1.30;23.65
70437;BME280;57877;39.750;-104.894;2023-03-18T06:22:10;84303.55;;;-1.17;23.62
70437;BME280;57877;39.750;-104.894;2023-03-18T06:24:33;84305.23;;;-1.33;23.72
70437;BME280;57877;39.750;-104.894;2023-03-18T06:26:58;84305.41;;;-1.41;23.66
70437;BME280;57877;39.750;-104.894;2023-03-18T06:29:23;84305.52;;;-1.93;24.21
70437;BME280;57877;39.750;-104.894;2023-03-18T06:31:48;84303.36;;;-1.57;24.08
70437;BME280;57877;39.750;-104.894;2023-03-18T06:34:13;84305.89;;;-1.65;24.26
70437;BME280;57877;39.750;-104.894;2023-03-18T06:36:38;84307.32;;;-1.40;24.34
70437;BME280;57877;39.750;-104.894;2023-03-18T06:39:03;84309.66;;;-1.46;24.46
70437;BME280;57877;39.750;-104.894;2023-03-18T06:41:28;84313.06;;;-1.72;24.56
70437;BME280;57877;39.750;-104.894;2023-03-18T06:43:53;84312.22;;;-1.39;24.43
70437;BME280;57877;39.750;-104.894;2023-03-18T06:46:19;84313.72;;;-1.70;24.47
70437;BME280;57877;39.750;-104.894;2023-03-18T06:48:43;84310.91;;;-1.70;24.65
70437;BME280;57877;39.750;-104.894;2023-03-18T06:51:09;84307.34;;;-1.53;24.65
70437;BME280;57877;39.750;-104.894;2023-03-18T06:53:35;84302.45;;;-1.75;24.47
70437;BME280;57877;39.750;-104.894;2023-03-18T06:56:00;84300.29;;;-1.76;24.78
70437;BME280;57877;39.750;-104.894;2023-03-18T06:58:25;84298.30;;;-2.30;25.11
70437;BME280;57877;39.750;-104.894;2023-03-18T07:00:50;84294.15;;;-2.40;25.30
70437;BME280;57877;39.750;-104.894;2023-03-18T07:03:15;84296.35;;;-2.24;25.31
70437;BME280;57877;39.750;-104.894;2023-03-18T07:05:40;84287.41;;;-2.90;25.87
70437;BME280;57877;39.750;-104.894;2023-03-18T07:08:05;84286.74;;;-2.60;25.85
70437;BME280;57877;39.750;-104.894;2023-03-18T07:10:30;84285.72;;;-2.66;26.14
70437;BME280;57877;39.750;-104.894;2023-03-18T07:12:56;84288.26;;;-2.03;25.77
70437;BME280;57877;39.750;-104.894;2023-03-18T07:15:21;84287.80;;;-2.64;26.08
70437;BME280;57877;39.750;-104.894;2023-03-18T07:17:46;84288.26;;;-2.43;26.01
70437;BME280;57877;39.750;-104.894;2023-03-18T07:20:11;84289.11;;;-2.50;25.85
70437;BME280;57877;39.750;-104.894;2023-03-18T07:22:36;84285.89;;;-2.59;25.99
70437;BME280;57877;39.750;-104.894;2023-03-18T07:25:00;84289.34;;;-2.72;25.85
70437;BME280;57877;39.750;-104.894;2023-03-18T07:27:25;84291.51;;;-2.87;25.68
70437;BME280;57877;39.750;-104.894;2023-03-18T07:29:50;84291.40;;;-2.48;25.57
70437;BME280;57877;39.750;-104.894;2023-03-18T07:32:16;84295.21;;;-2.12;25.41
70437;BME280;57877;39.750;-104.894;2023-03-18T07:34:41;84297.33;;;-2.48;25.45
70437;BME280;57877;39.750;-104.894;2023-03-18T07:37:06;84301.24;;;-2.16;25.31
70437;BME280;57877;39.750;-104.894;2023-03-18T07:39:31;84301.85;;;-2.24;25.34
70437;BME280;57877;39.750;-104.894;2023-03-18T07:41:56;84305.39;;;-2.56;25.30
70437;BME280;57877;39.750;-104.894;2023-03-18T07:44:22;84307.94;;;-2.54;25.15
70437;BME280;57877;39.750;-104.894;2023-03-18T07:46:46;84306.90;;;-2.49;25.20
70437;BME280;57877;39.750;-104.894;2023-03-18T07:49:11;84306.36;;;-2.24;25.21
70437;BME280;57877;39.750;-104.894;2023-03-18T07:51:36;84304.82;;;-2.21;25.00
70437;BME280;57877;39.750;-104.894;2023-03-18T07:54:01;84303.57;;;-2.35;25.09
70437;BME280;57877;39.750;-104.894;2023-03-18T07:56:26;84305.24;;;-2.74;25.31
70437;BME280;57877;39.750;-104.894;2023-03-18T07:58:51;84306.97;;;-2.61;25.30
70437;BME280;57877;39.750;-104.894;2023-03-18T08:01:16;84304.73;;;-2.77;25.49
70437;BME280;57877;39.750;-104.894;2023-03-18T08:03:41;84306.28;;;-2.56;25.58
70437;BME280;57877;39.750;-104.894;2023-03-18T08:06:06;84308.71;;;-2.52;25.75
70437;BME280;57877;39.750;-104.894;2023-03-18T08:08:31;84307.30;;;-2.46;25.53
70437;BME280;57877;39.750;-104.894;2023-03-18T08:11:06;84310.11;;;-2.65;25.70
70437;BME280;57877;39.750;-104.894;2023-03-18T08:13:21;84311.39;;;-2.62;25.73
70437;BME280;57877;39.750;-104.894;2023-03-18T08:15:47;84307.27;;;-2.86;25.67
70437;BME280;57877;39.750;-104.894;2023-03-18T08:18:12;84305.92;;;-2.67;25.74
70437;BME280;57877;39.750;-104.894;2023-03-18T08:20:37;84307.03;;;-2.51;25.57
70437;BME280;57877;39.750;-104.894;2023-03-18T08:23:02;84302.93;;;-3.08;25.98
70437;BME280;57877;39.750;-104.894;2023-03-18T08:25:27;84301.21;;;-3.09;26.17
70437;BME280;57877;39.750;-104.894;2023-03-18T08:27:52;84307.38;;;-3.16;26.40
70437;BME280;57877;39.750;-104.894;2023-03-18T08:30:18;84309.95;;;-3.06;26.38
70437;BME280;57877;39.750;-104.894;2023-03-18T08:32:42;84308.88;;;-3.26;26.56
70437;BME280;57877;39.750;-104.894;2023-03-18T08:35:08;84309.46;;;-2.92;26.31
70437;BME280;57877;39.750;-104.894;2023-03-18T08:37:32;84303.53;;;-3.13;26.02
70437;BME280;57877;39.750;-104.894;2023-03-18T08:39:58;84301.01;;;-3.31;26.08
70437;BME280;57877;39.750;-104.894;2023-03-18T08:42:23;84300.71;;;-3.02;26.07
70437;BME280;57877;39.750;-104.894;2023-03-18T08:44:49;84298.91;;;-3.32;26.03
70437;BME280;57877;39.750;-104.894;2023-03-18T08:47:14;84293.43;;;-3.42;26.04
70437;BME280;57877;39.750;-104.894;2023-03-18T08:49:39;84294.58;;;-3.26;26.06
70437;BME280;57877;39.750;-104.894;2023-03-18T08:52:05;84296.95;;;-3.13;25.83
70437;BME280;57877;39.750;-104.894;2023-03-18T08:54:29;84300.51;;;-3.16;25.91
70437;BME280;57877;39.750;-104.894;2023-03-18T08:56:55;84300.35;;;-3.41;26.08
70437;BME280;57877;39.750;-104.894;2023-03-18T08:59:20;84299.59;;;-3.01;26.11
70437;BME280;57877;39.750;-104.894;2023-03-18T09:01:45;84298.11;;;-3.23;26.09
70437;BME280;57877;39.750;-104.894;2023-03-18T09:04:10;84293.05;;;-3.20;26.04
70437;BME280;57877;39.750;-104.894;2023-03-18T09:06:36;84289.51;;;-3.25;26.15
70437;BME280;57877;39.750;-104.894;2023-03-18T09:09:01;84287.85;;;-3.41;26.41
70437;BME280;57877;39.750;-104.894;2023-03-18T09:11:26;84286.92;;;-3.62;26.62
70437;BME280;57877;39.750;-104.894;2023-03-18T09:13:53;84287.21;;;-4.36;27.66
70437;BME280;57877;39.750;-104.894;2023-03-18T09:16:17;84285.26;;;-4.56;28.09
70437;BME280;57877;39.750;-104.894;2023-03-18T09:18:42;84284.07;;;-4.58;28.18
70437;BME280;57877;39.750;-104.894;2023-03-18T09:21:07;84284.54;;;-4.22;27.98
70437;BME280;57877;39.750;-104.894;2023-03-18T09:23:32;84280.95;;;-4.42;28.10
70437;BME280;57877;39.750;-104.894;2023-03-18T09:25:57;84277.39;;;-4.49;28.44
70437;BME280;57877;39.750;-104.894;2023-03-18T09:28:22;84278.79;;;-4.63;28.66
70437;BME280;57877;39.750;-104.894;2023-03-18T09:30:49;84280.72;;;-4.51;28.56
70437;BME280;57877;39.750;-104.894;2023-03-18T09:33:13;84284.19;;;-4.90;28.98
70437;BME280;57877;39.750;-104.894;2023-03-18T09:35:39;84280.79;;;-4.46;28.44
70437;BME280;57877;39.750;-104.894;2023-03-18T09:38:03;84280.73;;;-4.54;28.46
70437;BME280;57877;39.750;-104.894;2023-03-18T09:40:30;84284.07;;;-4.60;28.73
70437;BME280;57877;39.750;-104.894;2023-03-18T09:43:03;84281.36;;;-4.28;28.47
70437;BME280;57877;39.750;-104.894;2023-03-18T09:45:23;84283.86;;;-4.29;28.29
70437;BME280;57877;39.750;-104.894;2023-03-18T09:47:55;84284.83;;;-4.05;27.85
70437;BME280;57877;39.750;-104.894;2023-03-18T09:50:18;84283.23;;;-3.78;27.84
70437;BME280;57877;39.750;-104.894;2023-03-18T09:52:38;84282.64;;;-4.08;27.66
70437;BME280;57877;39.750;-104.894;2023-03-18T09:55:03;84278.20;;;-4.13;27.72
70437;BME280;57877;39.750;-104.894;2023-03-18T09:57:27;84276.36;;;-3.73;27.34
70437;BME280;57877;39.750;-104.894;2023-03-18T09:59:52;84269.96;;;-3.80;27.09
70437;BME280;57877;39.750;-104.894;2023-03-18T10:02:20;84272.59;;;-4.14;27.09
70437;BME280;57877;39.750;-104.894;2023-03-18T10:04:41;84271.79;;;-3.80;27.14
70437;BME280;57877;39.750;-104.894;2023-03-18T10:07:10;84271.98;;;-4.18;27.45
70437;BME280;57877;39.750;-104.894;2023-03-18T10:09:33;84266.17;;;-3.93;27.30
70437;BME280;57877;39.750;-104.894;2023-03-18T10:12:00;84265.93;;;-3.71;27.63
70437;BME280;57877;39.750;-104.894;2023-03-18T10:14:29;84268.31;;;-4.07;28.20
70437;BME280;57877;39.750;-104.894;2023-03-18T10:16:54;84267.35;;;-4.36;28.99
70437;BME280;57877;39.750;-104.894;2023-03-18T10:19:09;84267.19;;;-4.05;28.88
70437;BME280;57877;39.750;-104.894;2023-03-18T10:21:40;84268.86;;;-3.91;28.87
70437;BME280;57877;39.750;-104.894;2023-03-18T10:24:07;84268.17;;;-4.26;29.51
70437;BME280;57877;39.750;-104.894;2023-03-18T10:26:29;84269.65;;;-4.05;29.22
70437;BME280;57877;39.750;-104.894;2023-03-18T10:29:02;84270.71;;;-4.06;29.30
70437;BME280;57877;39.750;-104.894;2023-03-18T10:31:26;84269.70;;;-4.27;29.62
70437;BME280;57877;39.750;-104.894;2023-03-18T10:33:45;84271.64;;;-4.15;29.47
70437;BME280;57877;39.750;-104.894;2023-03-18T10:36:11;84272.58;;;-4.18;29.66
70437;BME280;57877;39.750;-104.894;2023-03-18T10:38:34;84268.20;;;-4.46;30.20
70437;BME280;57877;39.750;-104.894;2023-03-18T10:40:56;84267.24;;;-4.66;30.30
70437;BME280;57877;39.750;-104.894;2023-03-18T10:43:25;84270.95;;;-4.37;30.01
70437;BME280;57877;39.750;-104.894;2023-03-18T10:45:50;84272.12;;;-4.15;29.78
70437;BME280;57877;39.750;-104.894;2023-03-18T10:48:16;84274.79;;;-3.82;29.69
70437;BME280;57877;39.750;-104.894;2023-03-18T10:50:40;84276.55;;;-4.06;29.78
70437;BME280;57877;39.750;-104.894;2023-03-18T10:53:10;84273.46;;;-4.26;30.02
70437;BME280;57877;39.750;-104.894;2023-03-18T10:55:30;84277.14;;;-4.12;29.72
70437;BME280;57877;39.750;-104.894;2023-03-18T10:57:52;84281.79;;;-3.81;29.47
70437;BME280;57877;39.750;-104.894;2023-03-18T11:00:26;84281.02;;;-4.45;29.84
70437;BME280;57877;39.750;-104.894;2023-03-18T11:02:42;84287.82;;;-4.56;30.24
70437;BME280;57877;39.750;-104.894;2023-03-18T11:05:18;84286.44;;;-4.32;29.99
70437;BME280;57877;39.750;-104.894;2023-03-18T11:07:33;84286.39;;;-4.49;30.09
70437;BME280;57877;39.750;-104.894;2023-03-18T11:12:25;84288.38;;;-4.37;29.91
70437;BME280;57877;39.750;-104.894;2023-03-18T11:14:49;84288.85;;;-4.62;29.79
70437;BME280;57877;39.750;-104.894;2023-03-18T11:17:19;84293.37;;;-4.92;29.91
70437;BME280;57877;39.750;-104.894;2023-03-18T11:19:39;84291.81;;;-4.86;30.20
70437;BME280;57877;39.750;-104.894;2023-03-18T11:22:13;84292.98;;;-5.05;30.22
70437;BME280;57877;39.750;-104.894;2023-03-18T11:24:28;84289.77;;;-4.30;29.57
70437;BME280;57877;39.750;-104.894;2023-03-18T11:26:55;84291.77;;;-4.63;29.52
70437;BME280;57877;39.750;-104.894;2023-03-18T11:29:22;84293.01;;;-4.35;29.45
70437;BME280;57877;39.750;-104.894;2023-03-18T11:31:49;84288.12;;;-4.11;29.41
70437;BME280;57877;39.750;-104.894;2023-03-18T11:34:09;84296.06;;;-4.52;29.43
70437;BME280;57877;39.750;-104.894;2023-03-18T11:36:34;84296.83;;;-4.32;29.41
70437;BME280;57877;39.750;-104.894;2023-03-18T11:39:03;84299.12;;;-4.80;29.75
70437;BME280;57877;39.750;-104.894;2023-03-18T11:41:25;84300.64;;;-5.22;30.30
70437;BME280;57877;39.750;-104.894;2023-03-18T11:43:54;84307.40;;;-4.89;29.98
70437;BME280;57877;39.750;-104.894;2023-03-18T11:46:14;84312.45;;;-4.52;29.81
70437;BME280;57877;39.750;-104.894;2023-03-18T11:48:41;84307.42;;;-4.69;30.00
70437;BME280;57877;39.750;-104.894;2023-03-18T11:51:16;84312.12;;;-4.86;30.31
70437;BME280;57877;39.750;-104.894;2023-03-18T11:53:38;84310.61;;;-4.91;30.35
70437;BME280;57877;39.750;-104.894;2023-03-18T11:55:58;84312.87;;;-4.56;30.37
70437;BME280;57877;39.750;-104.894;2023-03-18T11:58:37;84314.79;;;-4.91;30.43
70437;BME280;57877;39.750;-104.894;2023-03-18T12:00:49;84314.42;;;-5.14;30.73
70437;BME280;57877;39.750;-104.894;2023-03-18T12:05:50;84324.44;;;-4.79;30.46
70437;BME280;57877;39.750;-104.894;2023-03-18T12:08:05;84326.52;;;-4.75;30.34
70437;BME280;57877;39.750;-104.894;2023-03-18T12:10:28;84324.88;;;-4.78;30.56
70437;BME280;57877;39.750;-104.894;2023-03-18T12:13:01;84327.24;;;-4.82;30.59
70437;BME280;57877;39.750;-104.894;2023-03-18T12:15:23;84327.21;;;-5.30;31.46
70437;BME280;57877;39.750;-104.894;2023-03-18T12:17:45;84337.58;;;-4.78;31.19
70437;BME280;57877;39.750;-104.894;2023-03-18T12:22:43;84342.62;;;-4.59;30.99
70437;BME280;57877;39.750;-104.894;2023-03-18T12:25:06;84346.32;;;-4.99;30.81
70437;BME280;57877;39.750;-104.894;2023-03-18T12:27:28;84344.72;;;-4.84;31.32
70437;BME280;57877;39.750;-104.894;2023-03-18T12:29:57;84346.02;;;-4.97;31.59